A- A+ FrançaisEnglishEspañol中国

最近的 LFBT Tarbes-Lourdes-PyrénéesLFQG Nevers-Fourchambault LFSB Basle-Mulhouse LFMY Salon-De-Provence

manche à air

飞行员的航空天气,使用METAR(气象机场报告)进行的飞行准备和TAF(终端机场预报:针对以下情况的短期天气预报)航空)。 以及其他资源,例如VAC(目视进近图)和NOTAM(通知飞行员)以进行预试飞行.

Heringsdorf机场 (Allemagne) / OACI EDAH/ IATA HDF

Heringsdorf机场的高度为28 m=92 ft. 它位于附近 Heringsdorf (Allemagne). 可提供5天天气预报 Garz 位于 1.1 km.

METAR Heringsdorf机场的 - EDAH

EDAH 211120Z 26014KT 9999 OVC013 04/02 Q1036

Heringsdorf机场METAR解码 (DE)

EDAH机场发行的METAR日期mardi 21 janvier 2020至11:20 GMT. 警告:此METAR已过期,已于62分钟前发布.

可见度为大于 10 km=大于6.2 sm.

温度为4°C=39 °F 露点为2°C=36 °F 。 这相当于87%的相对湿度。.

QNH是1036 hPa=30.59 inHg

的风14 kt=26 km/h, 风向为260°.

云:多云1300 ft=400云.

TAF Heringsdorf机场的 - EDAH

EDAH 211100Z 2112/2121 26011KT 9999 BKN014 BECMG 2116/2119 BKN004

EDAH 211100Z 2112/2121 26011KT 9999 距云014 变得 2116/2119 距云004

附近的机场Heringsdorf

Garz的一般天气5天预报 (1.1 km)EDCA Anklam机场 (32 km)EDCP Peenemunde机场 (40 km)EDCV Pasewalk Fransfelde机场 (44 km)EDBY Schmoldow机场 (54 km)EPSC Szczecin Goleniow机场 (59 km)EPSD Szczecin Dabie机场 (63 km)

Heringsdorf视觉方法图 - EDAH

所提供的视觉方法图(VAC视觉方法图)不保证其及时性。 在将其用于飞行准备或在飞行期间使用之前,飞行员是唯一负责验证其有效性的人员。.

VAC de EDAH

的鸟瞰图

Heringsdorf机场的NOTAM

提供的NOTAM不能保证其时事性。 在将其用于飞行准备或在飞行期间使用之前,飞行员是唯一负责验证其有效性的人员。

NOTAM Taxiway(s) (从 vendredi 22 novembre 2019 时间上午 15:00 到 jeudi 20 février 2020 时间上午 17:00)

C4116/19 NOTAMN
Q) EDWW/QMXLC/IV/M /A /000/999/5353N01409E005
A) EDAH B) 1911221500 C) 2002201700 EST
E) TWY C EAST OF INTERSECTION F CLSD DUE TO WIP.
CREATED: 22 Nov 2019 13:35:00
SOURCE: EUECYIYN

NOTAM Runway (从 lundi 11 mai 2015 时间上午 06:49)

C1439/15 NOTAMR C2808/14
Q) EDWW/QMRCS/IV/NBO/A /000/999/5353N01409E005
A) EDAH B) 1505110649 C) PERM
E) NEW GRASS RWY 10/28 NORTH (1325X40M) INSTALLED AND IN OPERATION.
ESTABLISHED BTN ASPHALT RWY AND TWY D EAST OF TWY E. USABLE FOR ACFT
UP TO MAXIMUM TAKE-OFF WEIGHT 5700KG.
EXISTING GRASS RWY 10/28 SOUTH (600X30M) USABLE FOR ACFT UP TO
MAXIMUM TAKE-OFF WEIGHT 2000KG.
CREATED: 11 May 2015 06:50:00
SOURCE: EUECYIYN

数据源